Texas General Land Office
 Texas General Land Office
 George P. Bush, Commissioner

 Oil Spill Prevention
 & Response

Texas Automated Buoy System
Real Time Ocean Observations
Supporting Oil Spill Prevention and
Response since 1995
Geochemical and Environmental Research Group

NOAA - NDBC Buoy 42020 -- Texas Automated Buoy System

NBDC Buoy 42020
Corpus Christi, TX
Conditions at 07/16/2019 14:20 UTC (07/16/2019 09:20 CDT)
26° 57.0000'N   96° 42.0000'W
50nm Southeast of Corpus Christi, TX
Anemometer height: 5m
Water Depth: 252 feet (77 meters)
Wind: 8.0 m/s (15.6 kts)
          From 160°T (SSE)
Wind Gust: 10.00 m/s (19.4 kts) Pressure: 1015.7 mb (29.99 inHg)
Air Temp: 30°C (85 °F) Dewpoint: 27°C (80°F) Relative Humidity: 84%
Sea Surf Temp: 30 °C (85 °F) Wave Height: 1.5m (4.9 ft) Wave Period: 7
  


IMPORTANT: Notice to Mariners


Today's Velocity Data

  Buoy     Date      Time     East   North   Speed  Dir(°T) Wave Ht WvPer  Num
|  ID  |          |  (UTC) | (m/s) | (m/s) | (m/s) |(FROM) |  (m)  | secs| pts |
+======+==========+========+=======+=======+=======+=======+=======+=====+=====+
  42020 07/02/2019 00:10:00    4.60   -3.86    6.00     130     0.7     0     1
  42020 07/02/2019 00:20:00    4.60   -3.86    6.00     130     0.7     5     1
  42020 07/02/2019 00:30:00    4.60   -3.86    6.00     130     0.0     0     1
  42020 07/02/2019 00:40:00    4.60   -3.86    6.00     130     0.0     0     1
  42020 07/02/2019 00:50:00    5.36   -4.50    7.00     130     0.0     0     1
  42020 07/02/2019 06:00:00    5.60   -5.49    7.84     134     0.2     1    31
  42020 07/02/2019 06:10:00    4.50   -7.79    9.00     150     0.0     0     1
  42020 07/02/2019 06:20:00    4.50   -7.79    9.00     150     1.1     5     1
  42020 07/02/2019 06:30:00    4.00   -6.93    8.00     150     0.0     0     1
  42020 07/02/2019 06:40:00    4.50   -7.79    9.00     150     0.0     0     1
  42020 07/02/2019 06:50:00    4.50   -7.79    9.00     150     0.0     0     1
  42020 07/02/2019 12:00:00    2.73   -7.68    8.15     160     0.3     1    31
  42020 07/02/2019 12:10:00    2.39   -6.58    7.00     160     0.0     0     1
  42020 07/02/2019 12:20:00    2.39   -6.58    7.00     160     1.1     5     1
  42020 07/02/2019 12:30:00    2.05   -5.64    6.00     160     0.0     0     1
  42020 07/02/2019 12:40:00    2.05   -5.64    6.00     160     0.0     0     1
  42020 07/02/2019 12:50:00    1.22   -6.89    7.00     170     0.0     0     1
  42020 07/02/2019 18:00:00    1.35   -6.46    6.60     168     0.2     1    31
  42020 07/02/2019 18:10:00    0.00   -6.00    6.00     180     0.0     0     1
  42020 07/02/2019 18:20:00    0.00   -6.00    6.00     180     1.0     7     1
  42020 07/02/2019 18:30:00    0.00   -6.00    6.00     180     0.0     0     1
  42020 07/02/2019 18:40:00    1.04   -5.91    6.00     170     0.0     0     1
  42020 07/02/2019 18:50:00    1.22   -6.89    7.00     170     0.0     0     1
  42020 07/03/2019 00:00:00    3.54   -4.78    5.95     144     0.2     1    30
  42020 07/03/2019 00:10:00    7.52   -2.74    8.00     110     0.0     0     1
  42020 07/03/2019 00:20:00    7.88   -1.39    8.00     100     1.0     6     1
  42020 07/03/2019 00:30:00    7.88   -1.39    8.00     100     0.0     0     1
  42020 07/03/2019 00:40:00    7.88   -1.39    8.00     100     0.0     0     1
  42020 07/03/2019 00:50:00    7.88   -1.39    8.00     100     0.0     0     1
  42020 07/03/2019 06:00:00    7.59   -5.40    9.31     126     0.3     1    31
  42020 07/03/2019 06:10:00    7.07   -8.43   11.00     140     0.0     0     1
  42020 07/03/2019 06:20:00    7.71   -9.19   12.00     140     1.7     6     1
  42020 07/03/2019 06:30:00    5.50   -9.53   11.00     150     0.0     0     1
  42020 07/03/2019 06:40:00    5.50   -9.53   11.00     150     0.0     0     1
  42020 07/03/2019 06:50:00    5.50   -9.53   11.00     150     0.0     0     1
  42020 07/03/2019 12:00:00    4.24   -9.33   10.25     156     0.4     1    31
  42020 07/03/2019 12:10:00    4.50   -7.79    9.00     150     0.0     0     1
  42020 07/03/2019 12:20:00    4.50   -7.79    9.00     150     1.6     7     1
  42020 07/03/2019 12:30:00    4.50   -7.79    9.00     150     0.0     0     1
  42020 07/03/2019 12:40:00    4.00   -6.93    8.00     150     0.0     0     1
  42020 07/03/2019 12:50:00    4.00   -6.93    8.00     150     0.0     0     1
  42020 07/03/2019 18:00:00    2.91   -7.69    8.22     159     0.3     1    31
  42020 07/03/2019 18:10:00    2.74   -7.52    8.00     160     0.0     0     1
  42020 07/03/2019 18:20:00    2.39   -6.58    7.00     160     1.2     7     1
  42020 07/03/2019 18:30:00    2.39   -6.58    7.00     160     0.0     0     1
  42020 07/03/2019 18:40:00    2.74   -7.52    8.00     160     0.0     0     1
  42020 07/03/2019 18:50:00    2.74   -7.52    8.00     160     0.0     0     1
  42020 07/04/2019 00:00:00    3.72   -6.31    7.33     150     0.3     1    30
  42020 07/04/2019 00:10:00    5.14   -6.13    8.00     140     0.0     0     1
  42020 07/04/2019 00:20:00    5.14   -6.13    8.00     140     1.3     7     1
  42020 07/04/2019 00:30:00    6.13   -5.14    8.00     130     0.0     0     1
  42020 07/04/2019 00:40:00    6.13   -5.14    8.00     130     0.0     0     1
  42020 07/04/2019 00:50:00    6.13   -5.14    8.00     130     0.0     0     1
  42020 07/04/2019 06:00:00    3.36   -5.63    6.56     149     0.3     1    31
  42020 07/04/2019 06:10:00    4.00   -6.93    8.00     150     0.0     0     1
  42020 07/04/2019 06:20:00    4.00   -6.93    8.00     150     1.2     6     1
  42020 07/04/2019 06:30:00    4.00   -6.93    8.00     150     0.0     0     1
  42020 07/04/2019 06:40:00    4.50   -7.79    9.00     150     0.0     0     1
  42020 07/04/2019 06:50:00    4.50   -7.79    9.00     150     0.0     0     1
  42020 07/04/2019 12:00:00    4.46   -9.51   10.51     155     0.3     1    31
  42020 07/04/2019 12:10:00    3.42   -9.40   10.00     160     0.0     0     1
  42020 07/04/2019 12:20:00    3.76  -10.34   11.00     160     1.4     7     1
  42020 07/04/2019 12:30:00    3.76  -10.34   11.00     160     0.0     0     1
  42020 07/04/2019 12:40:00    1.74   -9.85   10.00     170     0.0     0     1
  42020 07/04/2019 12:50:00    1.91  -10.83   11.00     170     0.0     0     1
  42020 07/04/2019 18:00:00    6.48   -7.38    9.82     139     0.3     1    31
  42020 07/04/2019 18:10:00    4.50   -7.79    9.00     150     0.0     0     1
  42020 07/04/2019 18:20:00    2.74   -7.52    8.00     160     1.3     7     1
  42020 07/04/2019 18:30:00    4.00   -6.93    8.00     150     0.0     0     1
  42020 07/04/2019 18:40:00    4.00   -6.93    8.00     150     0.0     0     1
  42020 07/04/2019 18:50:00    2.74   -7.52    8.00     160     0.0     0     1
  42020 07/05/2019 00:00:00    4.34   -6.60    7.90     147     0.2     1    31
  42020 07/05/2019 00:10:00    6.89   -5.79    9.00     130     0.0     0     1
  42020 07/05/2019 00:20:00    5.79   -6.89    9.00     140     1.4     7     1
  42020 07/05/2019 00:30:00    6.89   -5.79    9.00     130     0.0     0     1
  42020 07/05/2019 00:40:00    6.89   -5.79    9.00     130     0.0     0     1
  42020 07/05/2019 00:50:00    6.89   -5.79    9.00     130     0.0     0     1
  42020 07/05/2019 06:00:00    5.07   -6.43    8.19     142     0.3     1    31
  42020 07/05/2019 06:10:00    4.00   -6.93    8.00     150     0.0     0     1
  42020 07/05/2019 06:20:00    4.00   -6.93    8.00     150     1.3     6     1
  42020 07/05/2019 06:30:00    4.00   -6.93    8.00     150     0.0     0     1
  42020 07/05/2019 06:40:00    4.00   -6.93    8.00     150     0.0     0     1
  42020 07/05/2019 06:50:00    4.00   -6.93    8.00     150     0.0     0     1
  42020 07/05/2019 12:00:00    4.36   -7.83    8.96     151     0.3     1    31
  42020 07/05/2019 12:10:00    2.74   -7.52    8.00     160     1.1     0     1
  42020 07/05/2019 12:20:00    2.74   -7.52    8.00     160     1.1     6     1
  42020 07/05/2019 12:30:00    2.74   -7.52    8.00     160     0.0     0     1
  42020 07/05/2019 12:40:00    2.74   -7.52    8.00     160     0.0     0     1
  42020 07/05/2019 12:50:00    2.74   -7.52    8.00     160     0.0     0     1